Time;durP1;ratioP1;P1;durP2;ratioP2;P2;SDS_P1;SDS_P2;PMS_P1;PMS_P2;Temp;Humidity;BMP_temperature;BMP_pressure;BME280_temperature;BME280_humidity;BME280_pressure;Samples;Min_cycle;Max_cycle;Signal;HPM_P1;HPM_P2
2024/01/31 00:02:18;;;;;;;25.00;19.30;;;8.50;99.90;;;;;;6162530;23;20408;-77
2024/01/31 00:04:46;;;;;;;25.43;19.60;;;8.30;99.90;;;;;;6161520;23;20549;-77
2024/01/31 00:07:13;;;;;;;22.43;18.57;;;8.30;99.90;;;;;;6160792;23;20416;-76
2024/01/31 00:09:43;;;;;;;22.77;18.23;;;8.30;99.90;;;;;;6160011;23;20439;-76
2024/01/31 00:12:12;;;;;;;23.50;16.60;;;8.30;99.90;;;;;;6161111;23;20404;-77
2024/01/31 00:14:40;;;;;;;21.40;18.37;;;8.10;99.90;;;;;;6159899;23;20479;-77
2024/01/31 00:17:10;;;;;;;23.17;18.27;;;8.30;99.90;;;;;;6158949;23;20466;-77
2024/01/31 00:19:39;;;;;;;24.70;18.93;;;8.30;99.90;;;;;;6157803;23;20482;-77
2024/01/31 00:22:15;;;;;;;25.80;18.20;;;8.30;99.90;;;;;;6158009;23;20792;-77
2024/01/31 00:24:45;;;;;;;22.90;20.60;;;8.30;99.90;;;;;;6158474;23;20486;-77
2024/01/31 00:27:19;;;;;;;25.00;19.43;;;8.60;99.90;;;;;;6157976;23;20420;-78
2024/01/31 00:29:52;;;;;;;23.07;19.07;;;8.40;99.90;;;;;;6157926;23;21049;-77
2024/01/31 00:32:21;;;;;;;25.37;19.43;;;8.30;99.90;;;;;;6158333;23;20615;-76
2024/01/31 00:34:55;;;;;;;25.83;19.37;;;8.10;99.90;;;;;;6159089;23;20412;-77
2024/01/31 00:37:24;;;;;;;22.20;19.10;;;8.10;99.90;;;;;;6160633;23;20400;-77
2024/01/31 00:39:52;;;;;;;21.83;18.87;;;8.40;99.90;;;;;;6160629;23;20434;-77
2024/01/31 00:42:23;;;;;;;23.80;20.60;;;8.40;99.90;;;;;;6160837;23;20412;-77
2024/01/31 00:44:53;;;;;;;22.57;19.50;;;8.40;99.90;;;;;;6161361;23;20986;-76
2024/01/31 00:47:21;;;;;;;21.83;19.30;;;8.40;99.90;;;;;;6160543;23;20397;-77
2024/01/31 00:49:48;;;;;;;26.87;19.73;;;8.40;99.90;;;;;;6163301;23;20447;-76
2024/01/31 00:52:17;;;;;;;28.23;20.60;;;8.10;99.90;;;;;;6163592;23;20407;-77
2024/01/31 00:54:44;;;;;;;26.27;21.43;;;8.40;99.90;;;;;;6163932;23;20412;-78
2024/01/31 00:57:14;;;;;;;31.77;21.80;;;8.40;99.90;;;;;;6163302;23;20412;-77
2024/01/31 00:59:43;;;;;;;29.70;21.27;;;8.40;99.90;;;;;;6163052;23;20419;-77
2024/01/31 01:02:12;;;;;;;30.00;21.50;;;8.60;99.90;;;;;;6162830;23;20412;-76
2024/01/31 01:04:39;;;;;;;32.17;22.47;;;8.40;99.90;;;;;;6162963;23;20990;-77
2024/01/31 01:07:07;;;;;;;31.70;22.20;;;8.60;99.90;;;;;;6162604;23;20448;-78
2024/01/31 01:09:36;;;;;;;33.17;23.17;;;8.40;99.90;;;;;;6165791;23;20428;-77
2024/01/31 01:12:04;;;;;;;35.33;22.20;;;8.40;99.90;;;;;;6160417;23;20419;-77
2024/01/31 01:14:37;;;;;;;29.20;21.07;;;8.40;99.90;;;;;;6160658;23;20422;-77
2024/01/31 01:17:10;;;;;;;28.77;21.57;;;8.40;99.90;;;;;;6160892;23;20392;-77
2024/01/31 01:19:39;;;;;;;23.67;21.10;;;8.40;99.90;;;;;;6160352;23;20456;-76
2024/01/31 01:22:13;;;;;;;25.40;21.03;;;8.40;99.90;;;;;;6160451;23;20412;-77
2024/01/31 01:24:41;;;;;;;26.40;21.00;;;8.40;99.90;;;;;;6160014;23;20828;-77
2024/01/31 01:27:14;;;;;;;31.47;20.73;;;8.40;99.90;;;;;;6160580;23;20808;-77
2024/01/31 01:29:44;;;;;;;29.57;21.73;;;8.40;99.90;;;;;;6159526;23;20470;-76
2024/01/31 01:32:17;;;;;;;23.47;20.40;;;8.30;99.90;;;;;;6159893;23;20411;-76
2024/01/31 01:34:44;;;;;;;26.30;20.37;;;8.30;99.90;;;;;;6159409;23;20369;-77
2024/01/31 01:37:12;;;;;;;28.60;21.60;;;8.30;99.90;;;;;;6159737;23;20419;-77
2024/01/31 01:39:39;;;;;;;27.60;21.10;;;8.30;99.90;;;;;;6159430;23;20439;-77
2024/01/31 01:42:06;;;;;;;24.60;19.30;;;8.30;99.90;;;;;;6159480;23;20442;-75
2024/01/31 01:44:35;;;;;;;26.47;21.93;;;8.40;99.90;;;;;;6158647;23;20434;-77
2024/01/31 01:47:06;;;;;;;24.37;19.43;;;8.30;99.90;;;;;;6159052;23;20411;-78
2024/01/31 01:49:36;;;;;;;26.70;20.80;;;8.50;99.90;;;;;;6157746;23;20439;-77
2024/01/31 01:52:05;;;;;;;25.07;20.47;;;8.30;99.90;;;;;;6158950;23;20412;-77
2024/01/31 01:54:33;;;;;;;22.07;19.73;;;8.30;99.90;;;;;;6158717;23;20443;-78
2024/01/31 01:57:09;;;;;;;24.20;20.53;;;8.30;99.90;;;;;;6159774;23;20416;-77
2024/01/31 01:59:43;;;;;;;22.13;19.70;;;8.30;99.90;;;;;;6160430;23;20412;-76
2024/01/31 02:02:11;;;;;;;24.40;20.53;;;8.30;99.90;;;;;;6161701;23;20412;-78
2024/01/31 02:04:46;;;;;;;26.57;20.47;;;8.30;99.90;;;;;;6160120;23;20428;-78
2024/01/31 02:07:20;;;;;;;29.53;20.33;;;8.30;99.90;;;;;;6162444;23;20442;-77
2024/01/31 02:09:51;;;;;;;23.50;19.30;;;8.30;99.90;;;;;;6163622;23;20438;-77
2024/01/31 02:12:26;;;;;;;21.77;19.47;;;8.30;99.90;;;;;;6162970;23;20404;-77
2024/01/31 02:14:56;;;;;;;24.23;20.13;;;8.30;99.90;;;;;;6164148;23;20411;-78
2024/01/31 02:17:33;;;;;;;26.23;18.70;;;8.30;99.90;;;;;;6163967;23;20412;-77
2024/01/31 02:20:08;;;;;;;21.17;18.90;;;8.50;99.90;;;;;;6164119;23;20415;-78
2024/01/31 02:22:39;;;;;;;23.30;20.37;;;8.00;99.90;;;;;;6165600;23;20431;-78
2024/01/31 02:25:14;;;;;;;24.13;19.83;;;8.20;99.90;;;;;;6165247;23;20409;-77
2024/01/31 02:27:52;;;;;;;25.93;19.40;;;8.20;99.90;;;;;;6164482;23;20917;-77
2024/01/31 02:30:28;;;;;;;22.47;19.17;;;8.20;99.90;;;;;;6163356;23;20462;-77
2024/01/31 02:32:57;;;;;;;21.93;18.07;;;7.90;99.90;;;;;;6163258;23;20415;-77
2024/01/31 02:35:34;;;;;;;23.63;19.60;;;8.20;99.90;;;;;;6163933;23;20491;-76
2024/01/31 02:38:03;;;;;;;22.97;20.20;;;8.30;99.90;;;;;;6159540;23;20412;-77
2024/01/31 02:40:31;;;;;;;22.87;19.10;;;8.30;99.90;;;;;;6159763;23;20399;-78
2024/01/31 02:43:09;;;;;;;23.13;19.30;;;8.30;99.90;;;;;;6159009;23;20934;-76
2024/01/31 02:45:37;;;;;;;26.40;20.10;;;8.30;99.90;;;;;;6158526;23;20797;-76
2024/01/31 02:48:09;;;;;;;22.40;20.00;;;8.30;99.90;;;;;;6158345;23;20499;-76
2024/01/31 02:50:51;;;;;;;24.70;19.33;;;8.20;99.90;;;;;;6159322;23;20527;-77
2024/01/31 02:53:28;;;;;;;24.70;18.93;;;8.20;99.90;;;;;;6157873;23;20823;-77
2024/01/31 02:55:59;;;;;;;21.93;19.00;;;8.20;99.90;;;;;;6159293;23;20403;-78
2024/01/31 02:58:33;;;;;;;27.37;20.23;;;7.90;99.90;;;;;;6157801;23;20821;-76
2024/01/31 03:01:05;;;;;;;21.77;18.90;;;8.20;99.90;;;;;;6158634;23;20388;-77
2024/01/31 03:03:40;;;;;;;20.90;17.70;;;8.20;99.90;;;;;;6159125;23;20432;-76
2024/01/31 03:06:15;;;;;;;23.63;18.80;;;8.10;99.90;;;;;;6159398;23;20416;-77
2024/01/31 03:08:56;;;;;;;23.40;18.57;;;8.10;99.90;;;;;;6156993;23;20392;-77
2024/01/31 03:11:29;;;;;;;23.50;18.23;;;8.20;99.90;;;;;;6129876;23;20446;-76
2024/01/31 03:13:58;;;;;;;23.33;18.80;;;8.20;99.90;;;;;;6156953;23;20432;-76
2024/01/31 03:16:31;;;;;;;21.40;18.10;;;8.20;99.90;;;;;;6156791;23;20475;-77
2024/01/31 03:19:04;;;;;;;23.43;17.90;;;8.20;99.90;;;;;;6156941;23;20930;-77
2024/01/31 03:21:44;;;;;;;20.00;16.30;;;8.40;99.90;;;;;;6158331;23;20490;-77
2024/01/31 03:24:22;;;;;;;19.23;17.27;;;8.20;99.90;;;;;;6157700;23;20495;-77
2024/01/31 03:27:00;;;;;;;19.53;17.50;;;8.20;99.90;;;;;;6158566;23;20422;-78
2024/01/31 03:29:33;;;;;;;20.07;16.50;;;8.10;99.90;;;;;;6158192;23;20415;-77
2024/01/31 03:32:11;;;;;;;19.37;16.27;;;8.10;99.90;;;;;;6158467;23;20412;-76
2024/01/31 03:34:48;;;;;;;19.90;17.67;;;8.10;99.90;;;;;;6159803;23;20445;-76
2024/01/31 03:37:17;;;;;;;18.70;16.00;;;8.10;99.90;;;;;;6161151;23;20431;-76
2024/01/31 03:39:47;;;;;;;19.17;16.57;;;8.10;99.90;;;;;;6158587;23;20546;-76
2024/01/31 03:42:18;;;;;;;23.77;17.30;;;8.10;99.90;;;;;;6158907;23;20756;-77
2024/01/31 03:44:46;;;;;;;19.00;16.93;;;8.10;99.90;;;;;;6159164;23;20401;-78
2024/01/31 03:47:15;;;;;;;20.07;17.80;;;8.10;99.90;;;;;;6157632;23;20415;-77
2024/01/31 03:49:45;;;;;;;20.63;17.07;;;8.20;99.90;;;;;;6156981;23;20412;-77
2024/01/31 03:52:17;;;;;;;20.50;16.57;;;8.10;99.90;;;;;;6159138;23;20414;-77
2024/01/31 03:54:51;;;;;;;20.00;17.50;;;8.10;99.90;;;;;;6158786;23;20423;-76
2024/01/31 03:57:28;;;;;;;19.97;18.03;;;8.10;99.90;;;;;;6160477;23;20447;-76
2024/01/31 03:59:56;;;;;;;18.83;15.80;;;8.10;99.90;;;;;;6160063;23;20424;-76
2024/01/31 04:02:26;;;;;;;19.73;16.97;;;8.10;99.90;;;;;;6159130;23;20439;-77
2024/01/31 04:04:54;;;;;;;25.63;16.73;;;8.40;99.90;;;;;;6160042;23;20436;-76
2024/01/31 04:07:24;;;;;;;17.07;15.53;;;8.10;99.90;;;;;;6160332;23;20400;-77
2024/01/31 04:09:57;;;;;;;19.10;17.10;;;8.10;99.90;;;;;;6162187;23;20459;-76
2024/01/31 04:12:25;;;;;;;20.57;16.73;;;8.20;99.90;;;;;;6162865;23;20396;-76
2024/01/31 04:14:56;;;;;;;22.17;18.03;;;8.10;99.90;;;;;;6162285;23;20476;-77
2024/01/31 04:17:24;;;;;;;21.80;17.37;;;8.10;99.90;;;;;;6162673;23;20423;-77
2024/01/31 04:19:52;;;;;;;16.70;15.17;;;8.10;99.90;;;;;;6161599;23;20507;-78
2024/01/31 04:22:22;;;;;;;18.13;15.40;;;8.10;99.90;;;;;;6161659;23;20412;-78
2024/01/31 04:24:51;;;;;;;22.50;17.13;;;8.00;99.90;;;;;;6161404;23;20439;-77
2024/01/31 04:27:21;;;;;;;19.27;16.40;;;8.10;99.90;;;;;;6161051;23;20419;-77
2024/01/31 04:29:51;;;;;;;18.47;16.33;;;8.10;99.90;;;;;;6161016;23;21056;-78
2024/01/31 04:32:18;;;;;;;17.90;16.10;;;8.00;99.90;;;;;;6162325;23;20435;-77
2024/01/31 04:34:48;;;;;;;18.40;16.70;;;8.00;99.90;;;;;;6161743;23;20412;-78
2024/01/31 04:37:21;;;;;;;21.43;17.43;;;8.10;99.90;;;;;;6160810;23;20416;-76
2024/01/31 04:39:53;;;;;;;20.10;17.40;;;8.10;99.90;;;;;;6160751;23;20446;-78
2024/01/31 04:42:23;;;;;;;19.57;16.67;;;8.10;99.90;;;;;;6160724;23;20419;-75
2024/01/31 04:45:06;;;;;;;19.47;17.13;;;8.10;99.90;;;;;;6162604;23;20467;-77
2024/01/31 04:47:43;;;;;;;18.27;16.40;;;8.10;99.90;;;;;;6161740;23;20428;-77
2024/01/31 04:50:15;;;;;;;18.53;16.63;;;8.10;99.90;;;;;;6161741;23;20890;-77
2024/01/31 04:52:50;;;;;;;20.90;16.10;;;8.10;99.90;;;;;;6162864;23;20416;-77
2024/01/31 04:55:18;;;;;;;18.57;16.30;;;8.10;99.90;;;;;;6162585;23;20431;-76
2024/01/31 04:57:54;;;;;;;18.13;16.43;;;8.10;99.90;;;;;;6162260;23;20405;-75
2024/01/31 05:00:31;;;;;;;21.57;16.80;;;8.10;99.90;;;;;;6162281;23;20783;-77
2024/01/31 05:02:59;;;;;;;18.27;16.30;;;8.00;99.90;;;;;;6162166;23;20423;-77
2024/01/31 05:05:38;;;;;;;18.17;16.37;;;8.10;99.90;;;;;;6162458;23;20408;-77
2024/01/31 05:08:08;;;;;;;17.70;16.00;;;8.30;99.90;;;;;;6164115;23;20414;-77
2024/01/31 05:10:38;;;;;;;23.70;18.10;;;8.10;99.90;;;;;;6169001;23;20435;-76
2024/01/31 05:13:06;;;;;;;16.70;15.10;;;8.10;99.90;;;;;;6167506;23;20432;-77
2024/01/31 05:15:34;;;;;;;20.33;16.13;;;8.10;99.90;;;;;;6166472;23;20759;-79
2024/01/31 05:18:01;;;;;;;20.73;17.03;;;8.10;99.90;;;;;;6166328;23;20404;-76
2024/01/31 05:20:31;;;;;;;18.17;16.40;;;8.10;99.90;;;;;;6163275;23;20404;-76
2024/01/31 05:22:59;;;;;;;19.40;17.40;;;8.10;99.90;;;;;;6162599;23;20427;-77
2024/01/31 05:25:28;;;;;;;18.13;16.20;;;8.10;99.90;;;;;;6162250;23;20424;-77
2024/01/31 05:28:00;;;;;;;20.83;16.67;;;8.10;99.90;;;;;;6161643;23;20420;-77
2024/01/31 05:30:31;;;;;;;18.20;16.30;;;8.10;99.90;;;;;;6162569;23;20770;-77
2024/01/31 05:33:02;;;;;;;17.83;15.93;;;8.10;99.90;;;;;;6161732;23;20408;-76
2024/01/31 05:35:31;;;;;;;17.97;16.10;;;8.10;99.90;;;;;;6159794;23;20412;-77
2024/01/31 05:38:05;;;;;;;19.97;15.67;;;8.10;99.90;;;;;;6157865;23;20419;-76
2024/01/31 05:40:38;;;;;;;23.90;17.17;;;8.10;99.90;;;;;;6159485;23;20411;-76
2024/01/31 05:43:11;;;;;;;18.80;17.03;;;8.10;99.90;;;;;;6159291;23;20432;-77
2024/01/31 05:45:43;;;;;;;17.57;15.67;;;8.30;99.90;;;;;;6160807;23;20373;-77
2024/01/31 05:48:11;;;;;;;19.30;17.23;;;8.10;99.90;;;;;;6160838;23;20414;-78
2024/01/31 05:50:46;;;;;;;20.87;17.73;;;8.10;99.90;;;;;;6160717;23;20889;-77
2024/01/31 05:53:17;;;;;;;19.80;17.03;;;8.10;99.90;;;;;;6160411;23;20446;-78
2024/01/31 05:55:45;;;;;;;18.07;16.07;;;8.10;99.90;;;;;;6159878;23;20400;-78
2024/01/31 05:58:13;;;;;;;18.83;16.90;;;8.10;99.90;;;;;;6159649;23;20491;-77
2024/01/31 06:00:44;;;;;;;18.73;16.63;;;8.10;99.90;;;;;;6161689;23;20545;-79
2024/01/31 06:03:12;;;;;;;20.90;17.17;;;8.10;99.90;;;;;;6160920;23;20809;-78
2024/01/31 06:05:39;;;;;;;19.50;15.77;;;8.10;99.90;;;;;;6160469;23;20460;-75
2024/01/31 06:08:10;;;;;;;19.10;17.00;;;8.10;99.90;;;;;;6159816;23;20408;-78
2024/01/31 06:10:38;;;;;;;17.80;15.90;;;8.10;99.90;;;;;;6162436;23;20444;-79
2024/01/31 06:13:08;;;;;;;20.87;16.00;;;8.10;99.90;;;;;;6162873;23;20436;-77
2024/01/31 06:15:39;;;;;;;17.30;15.40;;;8.10;99.90;;;;;;6164392;23;20915;-78
2024/01/31 06:18:08;;;;;;;17.03;15.20;;;8.10;99.90;;;;;;6163078;23;20408;-77
2024/01/31 06:20:40;;;;;;;18.10;16.40;;;7.80;99.90;;;;;;6162183;23;20412;-79
2024/01/31 06:23:09;;;;;;;17.93;15.40;;;8.00;99.90;;;;;;6162088;23;20915;-77
2024/01/31 06:25:37;;;;;;;22.90;16.10;;;7.90;99.90;;;;;;6162170;23;20416;-77
2024/01/31 06:28:05;;;;;;;17.97;16.07;;;7.90;99.90;;;;;;6161120;23;20482;-74
2024/01/31 06:30:41;;;;;;;18.97;16.10;;;7.90;99.90;;;;;;6163009;23;20926;-78
2024/01/31 06:33:14;;;;;;;18.83;15.83;;;7.90;99.90;;;;;;6159987;23;20479;-76
2024/01/31 06:35:47;;;;;;;17.00;15.20;;;7.90;99.90;;;;;;6161558;23;20427;-78
2024/01/31 06:38:15;;;;;;;18.87;16.93;;;7.90;99.90;;;;;;6162026;23;20412;-77
2024/01/31 06:40:45;;;;;;;21.63;17.77;;;7.90;99.90;;;;;;6160631;23;20416;-77
2024/01/31 06:43:17;;;;;;;19.03;17.03;;;8.20;99.90;;;;;;6157927;23;20475;-78
2024/01/31 06:45:48;;;;;;;18.57;16.67;;;8.30;99.90;;;;;;6159916;23;20925;-77
2024/01/31 06:48:20;;;;;;;18.47;16.70;;;8.70;99.90;;;;;;6156858;23;20411;-79
2024/01/31 06:50:49;;;;;;;18.73;16.27;;;8.50;99.90;;;;;;6156720;23;20931;-78
2024/01/31 06:53:17;;;;;;;19.33;17.40;;;8.10;99.90;;;;;;6156966;23;21017;-78
2024/01/31 06:55:45;;;;;;;18.83;15.93;;;8.30;99.90;;;;;;6156790;23;20709;-77
2024/01/31 06:58:16;;;;;;;18.30;16.30;;;8.20;99.90;;;;;;6156582;23;20416;-79
2024/01/31 07:00:44;;;;;;;20.20;17.30;;;8.20;99.90;;;;;;6157908;23;20795;-79
2024/01/31 07:03:14;;;;;;;19.63;16.53;;;7.80;99.90;;;;;;6158662;23;20923;-79
2024/01/31 07:05:47;;;;;;;18.50;16.70;;;8.10;99.90;;;;;;6159161;23;20978;-78
2024/01/31 07:08:19;;;;;;;22.93;19.07;;;8.20;99.90;;;;;;6157200;23;20957;-76
2024/01/31 07:10:47;;;;;;;20.70;16.77;;;8.20;99.90;;;;;;6157475;23;20737;-77
2024/01/31 07:13:17;;;;;;;20.07;18.07;;;8.20;99.90;;;;;;6157777;23;20824;-77
2024/01/31 07:15:48;;;;;;;18.83;16.90;;;8.20;99.90;;;;;;6157741;23;20778;-75
2024/01/31 07:18:20;;;;;;;19.60;17.53;;;8.40;99.90;;;;;;6157385;23;20463;-76
2024/01/31 07:20:50;;;;;;;20.23;17.87;;;8.20;99.90;;;;;;6156482;23;20781;-77
2024/01/31 07:23:17;;;;;;;22.07;18.10;;;8.20;99.90;;;;;;6157060;23;20475;-80
2024/01/31 07:25:44;;;;;;;20.60;18.30;;;8.00;99.90;;;;;;6156044;23;20447;-78
2024/01/31 07:28:11;;;;;;;20.73;17.83;;;8.10;99.90;;;;;;6155880;23;20933;-78
2024/01/31 07:30:39;;;;;;;20.40;18.30;;;8.20;99.90;;;;;;6155749;23;20403;-77
2024/01/31 07:33:06;;;;;;;20.33;18.40;;;7.90;99.90;;;;;;6155595;23;20557;-79
2024/01/31 07:35:34;;;;;;;20.53;18.40;;;8.20;99.90;;;;;;6156904;23;20503;-78
2024/01/31 07:38:02;;;;;;;20.20;18.23;;;8.30;99.90;;;;;;6157889;23;20811;-79
2024/01/31 07:40:31;;;;;;;22.30;17.73;;;8.30;99.90;;;;;;6157067;23;20422;-79
2024/01/31 07:42:59;;;;;;;20.93;18.07;;;8.30;99.90;;;;;;6156954;23;20423;-78
2024/01/31 07:45:27;;;;;;;21.10;18.23;;;8.30;99.90;;;;;;6156226;23;20937;-77
2024/01/31 07:47:57;;;;;;;23.43;19.53;;;8.30;99.90;;;;;;6157006;23;20436;-77
2024/01/31 07:50:24;;;;;;;19.77;17.40;;;8.30;99.90;;;;;;6157248;23;20983;-77
2024/01/31 07:52:52;;;;;;;21.83;18.30;;;8.30;99.90;;;;;;6156442;23;20451;-76
2024/01/31 07:55:24;;;;;;;18.70;16.77;;;8.30;99.90;;;;;;6156900;23;20775;-80
2024/01/31 07:57:51;;;;;;;25.90;19.40;;;8.30;99.90;;;;;;6156310;23;20883;-81
2024/01/31 08:00:21;;;;;;;19.80;17.80;;;8.30;99.90;;;;;;6157182;23;20889;-76
2024/01/31 08:02:51;;;;;;;20.10;18.10;;;8.30;99.90;;;;;;6157567;23;20973;-78
2024/01/31 08:05:22;;;;;;;20.30;18.30;;;8.20;99.90;;;;;;6158037;23;20808;-78
2024/01/31 08:07:50;;;;;;;21.60;18.07;;;8.20;99.90;;;;;;6157666;23;20491;-76
2024/01/31 08:10:21;;;;;;;20.70;17.87;;;8.30;99.90;;;;;;6158269;23;20704;-78
2024/01/31 08:12:49;;;;;;;20.53;18.10;;;8.00;99.90;;;;;;6160900;23;20444;-79
2024/01/31 08:15:17;;;;;;;18.27;16.30;;;8.20;99.90;;;;;;6160765;23;20415;-77
2024/01/31 08:17:46;;;;;;;20.40;17.80;;;8.30;99.90;;;;;;6160502;23;20483;-78
2024/01/31 08:20:14;;;;;;;20.20;17.57;;;8.30;99.90;;;;;;6160871;23;20412;-79
2024/01/31 08:22:44;;;;;;;20.50;17.67;;;8.50;99.90;;;;;;6160832;23;20424;-75
2024/01/31 08:25:12;;;;;;;18.97;17.00;;;8.40;99.90;;;;;;6160565;23;20790;-80
2024/01/31 08:27:43;;;;;;;22.27;18.10;;;8.30;99.90;;;;;;6164970;23;20424;-80
2024/01/31 08:30:11;;;;;;;19.33;16.77;;;8.30;99.90;;;;;;6163246;23;20388;-78
2024/01/31 08:32:38;;;;;;;23.17;18.63;;;8.40;99.90;;;;;;6161467;23;21160;-81
2024/01/31 08:35:07;;;;;;;21.83;17.33;;;8.30;99.90;;;;;;6162213;23;20476;-78
2024/01/31 08:37:34;;;;;;;21.00;18.10;;;8.40;99.90;;;;;;6162325;23;20427;-80
2024/01/31 08:40:02;;;;;;;21.33;17.27;;;8.40;99.90;;;;;;6161669;23;20391;-77
2024/01/31 08:42:30;;;;;;;20.07;17.50;;;8.30;99.90;;;;;;6161924;23;20887;-76
2024/01/31 08:45:00;;;;;;;21.37;17.40;;;8.40;99.90;;;;;;6160555;23;20416;-77
2024/01/31 08:47:32;;;;;;;19.67;17.63;;;8.40;99.90;;;;;;6160201;23;20412;-77
2024/01/31 08:50:03;;;;;;;21.77;19.60;;;8.40;99.90;;;;;;6161565;23;20388;-78
2024/01/31 08:52:34;;;;;;;20.57;17.10;;;8.50;99.90;;;;;;6163371;23;20428;-78
2024/01/31 08:55:02;;;;;;;21.40;17.43;;;8.50;99.90;;;;;;6164477;23;20406;-78
2024/01/31 08:57:30;;;;;;;25.77;18.33;;;8.80;99.90;;;;;;6164305;23;20765;-77
2024/01/31 09:00:02;;;;;;;19.93;17.80;;;8.60;99.90;;;;;;6163786;23;20416;-78
2024/01/31 09:02:31;;;;;;;20.40;17.47;;;8.60;99.90;;;;;;6164628;23;20418;-77
2024/01/31 09:04:59;;;;;;;20.47;17.97;;;8.30;99.90;;;;;;6165649;23;20467;-78
2024/01/31 09:07:25;;;;;;;20.10;18.00;;;8.90;99.90;;;;;;6161894;23;20484;-77
2024/01/31 09:09:53;;;;;;;23.93;20.30;;;8.70;99.90;;;;;;6160162;23;20470;-79
2024/01/31 09:12:21;;;;;;;22.83;19.07;;;8.40;99.90;;;;;;6159906;23;20495;-79
2024/01/31 09:14:49;;;;;;;21.13;18.60;;;8.80;99.90;;;;;;6159971;23;20478;-76
2024/01/31 09:17:18;;;;;;;21.30;18.87;;;8.80;99.90;;;;;;6160235;23;20399;-78
2024/01/31 09:19:45;;;;;;;23.17;18.87;;;8.90;99.90;;;;;;6159388;23;20420;-78
2024/01/31 09:22:12;;;;;;;21.47;19.10;;;8.90;99.90;;;;;;6158371;23;20396;-77
2024/01/31 09:24:39;;;;;;;21.30;19.07;;;9.00;99.90;;;;;;6159268;23;20418;-79
2024/01/31 09:27:07;;;;;;;21.57;19.40;;;9.10;99.90;;;;;;6160450;23;20416;-79
2024/01/31 09:29:37;;;;;;;22.03;19.60;;;9.00;99.90;;;;;;6162202;23;20404;-78
2024/01/31 09:32:05;;;;;;;25.97;19.73;;;9.00;99.90;;;;;;6161826;23;20495;-78
2024/01/31 09:34:34;;;;;;;22.50;19.67;;;9.00;99.90;;;;;;6161663;23;20428;-79
2024/01/31 09:37:02;;;;;;;22.00;19.77;;;9.10;99.90;;;;;;6159742;23;20412;-76
2024/01/31 09:39:34;;;;;;;24.43;20.80;;;9.30;99.90;;;;;;6160457;23;20412;-81
2024/01/31 09:42:02;;;;;;;22.63;20.30;;;9.20;99.90;;;;;;6160396;23;20963;-78
2024/01/31 09:44:31;;;;;;;22.37;20.10;;;9.20;99.90;;;;;;6160941;23;20447;-80
2024/01/31 09:47:02;;;;;;;24.07;20.80;;;9.20;99.90;;;;;;6160238;23;20899;-76
2024/01/31 09:49:29;;;;;;;23.17;20.60;;;9.20;99.90;;;;;;6158928;23;20419;-77
2024/01/31 09:52:00;;;;;;;23.33;20.77;;;9.20;99.90;;;;;;6158471;23;20962;-80
2024/01/31 09:54:31;;;;;;;25.60;22.00;;;9.30;99.90;;;;;;6159537;23;20937;-78
2024/01/31 09:56:58;;;;;;;22.07;19.80;;;9.30;99.90;;;;;;6159376;23;20416;-75
2024/01/31 09:59:26;;;;;;;24.90;21.20;;;9.10;99.90;;;;;;6158973;23;20412;-77
2024/01/31 10:02:01;;;;;;;22.97;20.33;;;9.40;99.90;;;;;;6157940;23;20921;-80
2024/01/31 10:04:29;;;;;;;24.00;21.20;;;9.40;99.90;;;;;;6158439;23;20432;-76
2024/01/31 10:06:56;;;;;;;25.47;22.27;;;9.30;99.90;;;;;;6159235;23;20418;-79
2024/01/31 10:09:26;;;;;;;25.20;20.40;;;9.30;99.90;;;;;;6157534;23;20412;-80
2024/01/31 10:11:53;;;;;;;26.00;20.20;;;9.10;99.90;;;;;;6158231;23;20439;-77
2024/01/31 10:14:20;;;;;;;22.50;20.27;;;9.40;99.90;;;;;;6166520;23;20438;-78
2024/01/31 10:16:51;;;;;;;23.53;21.13;;;9.10;99.90;;;;;;6163261;23;20660;-79
2024/01/31 10:19:19;;;;;;;22.67;20.33;;;9.40;99.90;;;;;;6167953;23;20396;-77
2024/01/31 10:21:47;;;;;;;21.80;19.43;;;9.50;99.90;;;;;;6164292;23;20408;-78
2024/01/31 10:24:17;;;;;;;20.70;18.00;;;9.50;99.90;;;;;;6171496;23;20442;-80
2024/01/31 10:26:48;;;;;;;23.10;19.80;;;9.50;99.90;;;;;;6172034;23;20389;-77
2024/01/31 10:29:16;;;;;;;22.67;20.47;;;9.40;99.90;;;;;;6174820;23;20388;-78
2024/01/31 10:31:46;;;;;;;23.37;20.57;;;9.70;99.90;;;;;;6175267;23;20744;-78
2024/01/31 10:34:17;;;;;;;22.87;20.40;;;9.50;99.90;;;;;;6165361;23;20439;-79
2024/01/31 10:36:48;;;;;;;24.63;20.87;;;9.60;99.90;;;;;;6164970;23;20400;-79
2024/01/31 10:39:18;;;;;;;22.93;19.70;;;9.90;99.90;;;;;;6163321;23;20879;-78
2024/01/31 10:41:51;;;;;;;21.93;19.40;;;9.70;99.90;;;;;;6163714;23;20785;-80
2024/01/31 10:44:25;;;;;;;20.73;18.53;;;9.80;99.90;;;;;;6161945;23;20412;-79
2024/01/31 10:46:53;;;;;;;23.00;19.40;;;9.80;99.90;;;;;;6161439;23;20503;-77
2024/01/31 10:49:26;;;;;;;20.53;18.43;;;9.90;99.90;;;;;;6158561;23;20938;-78
2024/01/31 10:51:58;;;;;;;22.10;19.33;;;9.60;99.90;;;;;;6162086;23;20745;-78
2024/01/31 10:54:33;;;;;;;22.80;18.17;;;9.90;99.90;;;;;;6168387;23;20420;-78
2024/01/31 10:57:08;;;;;;;22.23;18.20;;;10.00;99.90;;;;;;6164886;23;20414;-78
2024/01/31 10:59:37;;;;;;;21.77;19.30;;;10.00;99.90;;;;;;6165126;23;20407;-81
2024/01/31 11:02:05;;;;;;;20.00;18.07;;;9.90;99.90;;;;;;6164907;23;20786;-78
2024/01/31 11:04:39;;;;;;;19.53;17.13;;;9.90;99.90;;;;;;6164416;23;20432;-79
2024/01/31 11:07:21;;;;;;;21.53;18.07;;;10.00;99.90;;;;;;6166394;23;20934;-80
2024/01/31 11:09:56;;;;;;;20.47;17.67;;;10.30;99.90;;;;;;6165126;23;20404;-78
2024/01/31 11:12:31;;;;;;;21.60;18.70;;;10.10;99.90;;;;;;6163564;23;20442;-78
2024/01/31 11:15:02;;;;;;;20.73;18.40;;;10.10;99.90;;;;;;6167713;23;20411;-78
2024/01/31 11:17:34;;;;;;;21.93;19.30;;;10.10;99.90;;;;;;6169648;23;20408;-77
2024/01/31 11:20:04;;;;;;;21.20;18.90;;;10.10;99.90;;;;;;6171465;23;20424;-77
2024/01/31 11:22:37;;;;;;;24.27;20.70;;;10.00;99.90;;;;;;6172923;23;20412;-77
2024/01/31 11:25:10;;;;;;;21.53;19.13;;;10.20;99.90;;;;;;6170806;23;20412;-80
2024/01/31 11:27:44;;;;;;;22.50;19.67;;;10.10;99.90;;;;;;6169953;23;20416;-79
2024/01/31 11:30:16;;;;;;;21.27;19.03;;;10.00;99.90;;;;;;6169257;23;20412;-78
2024/01/31 11:32:48;;;;;;;23.90;20.27;;;10.20;99.90;;;;;;6167665;23;20455;-77
2024/01/31 11:35:18;;;;;;;22.10;19.50;;;10.30;99.90;;;;;;6166066;23;20892;-76
2024/01/31 11:37:49;;;;;;;21.20;18.90;;;10.40;99.90;;;;;;6164296;23;20507;-81
2024/01/31 11:40:22;;;;;;;23.80;21.40;;;10.50;99.90;;;;;;6161281;23;20487;-79
2024/01/31 11:42:53;;;;;;;22.30;19.77;;;10.80;99.90;;;;;;6162296;23;20522;-80
2024/01/31 11:45:23;;;;;;;22.30;20.03;;;10.40;99.90;;;;;;6163581;23;20396;-79
2024/01/31 11:47:55;;;;;;;22.00;19.80;;;10.60;99.90;;;;;;6163888;23;20852;-80
2024/01/31 11:50:24;;;;;;;22.30;19.73;;;10.70;99.90;;;;;;6163252;23;20408;-79
2024/01/31 11:52:57;;;;;;;23.80;21.40;;;10.80;99.90;;;;;;6163653;23;20459;-78
2024/01/31 11:55:26;;;;;;;23.23;20.50;;;10.60;99.90;;;;;;6163273;23;20510;-77
2024/01/31 11:57:59;;;;;;;23.53;18.97;;;10.90;99.90;;;;;;6163067;23;20420;-79
2024/01/31 12:00:29;;;;;;;21.43;19.23;;;10.80;99.90;;;;;;6162981;23;20399;-79
2024/01/31 12:02:59;;;;;;;21.80;19.40;;;11.10;99.90;;;;;;6162616;23;20451;-79
2024/01/31 12:05:27;;;;;;;24.37;19.57;;;10.90;99.90;;;;;;6162494;23;20412;-80
2024/01/31 12:07:59;;;;;;;23.23;20.83;;;11.10;99.90;;;;;;6162469;23;20479;-81
2024/01/31 12:10:35;;;;;;;22.70;20.27;;;10.90;99.90;;;;;;6164550;23;20419;-80
2024/01/31 12:13:09;;;;;;;23.30;20.33;;;10.90;99.90;;;;;;6163767;23;20447;-80
2024/01/31 12:15:39;;;;;;;25.60;20.83;;;11.00;99.90;;;;;;6163287;23;20479;-80
2024/01/31 12:18:11;;;;;;;22.90;19.17;;;11.10;99.90;;;;;;6160994;23;20583;-77
2024/01/31 12:20:43;;;;;;;24.70;19.47;;;10.80;99.90;;;;;;6163229;23;20442;-81
2024/01/31 12:23:14;;;;;;;22.33;20.03;;;11.10;99.90;;;;;;6161826;23;20424;-79
2024/01/31 12:25:48;;;;;;;22.53;20.10;;;11.20;99.90;;;;;;6163368;23;20431;-78
2024/01/31 12:28:22;;;;;;;21.27;19.00;;;11.20;99.90;;;;;;6163379;23;20470;-79
2024/01/31 12:30:56;;;;;;;23.53;18.67;;;11.20;99.90;;;;;;6164249;23;20412;-76
2024/01/31 12:33:35;;;;;;;23.80;19.00;;;11.20;99.90;;;;;;6163679;23;20447;-80
2024/01/31 12:36:12;;;;;;;22.23;19.73;;;11.20;99.90;;;;;;6163876;23;20415;-81
2024/01/31 12:38:49;;;;;;;21.20;19.10;;;11.30;99.90;;;;;;6163969;23;20558;-78
2024/01/31 12:41:27;;;;;;;20.73;18.63;;;11.40;99.90;;;;;;6163094;23;20411;-78
2024/01/31 12:44:08;;;;;;;21.77;17.03;;;11.40;99.90;;;;;;6162412;23;20435;-80
2024/01/31 12:46:54;;;;;;;20.57;18.37;;;11.50;99.90;;;;;;6162377;23;20418;-80
2024/01/31 12:49:38;;;;;;;18.47;16.50;;;11.60;99.90;;;;;;6163353;23;20443;-80
2024/01/31 12:52:11;;;;;;;19.50;17.40;;;11.30;99.90;;;;;;6165023;23;20744;-79
2024/01/31 12:54:39;;;;;;;22.00;17.77;;;11.60;99.90;;;;;;6163597;23;20531;-80